createdAt,value
2022-10-01T00:01:41.671Z,78.45
2022-10-01T00:04:08.421Z,78.29
2022-10-01T00:06:35.226Z,77.24
2022-10-01T00:09:01.911Z,77.44
2022-10-01T00:11:28.642Z,77.96
2022-10-01T00:13:55.510Z,77.08
2022-10-01T00:16:25.121Z,79.38
2022-10-01T00:18:53.578Z,78.58
2022-10-01T00:21:23.541Z,77.88
2022-10-01T00:23:58.562Z,79.81
2022-10-01T00:26:28.315Z,78.79
2022-10-01T00:28:57.702Z,80.16
2022-10-01T00:31:25.211Z,79.92
2022-10-01T00:33:53.985Z,80.02
2022-10-01T00:36:21.429Z,78.73
2022-10-01T00:38:48.239Z,79.37
2022-10-01T00:41:17.287Z,77.78
2022-10-01T00:43:48.051Z,78.92
2022-10-01T00:46:23.727Z,77.61
2022-10-01T00:49:01.059Z,77.48
2022-10-01T00:51:33.028Z,77.61
2022-10-01T00:54:10.346Z,76.53
2022-10-01T00:56:38.199Z,78.01
2022-10-01T00:59:06.015Z,76.66
2022-10-01T01:01:37.592Z,76.94
2022-10-01T01:04:16.169Z,78.19
2022-10-01T01:06:55.824Z,77.63
2022-10-01T01:09:25.089Z,77.03
2022-10-01T01:11:57.970Z,78.98
2022-10-01T01:14:57.901Z,79.18
2022-10-01T01:17:34.953Z,79.71
2022-10-01T01:20:29.427Z,78.66
2022-10-01T01:23:14.768Z,78.01
2022-10-01T01:25:54.674Z,78.25
2022-10-01T01:28:31.718Z,78.60
2022-10-01T01:31:03.673Z,78.27
2022-10-01T01:33:34.319Z,77.85
2022-10-01T01:36:08.645Z,78.07
2022-10-01T01:38:42.724Z,77.43
2022-10-01T01:41:11.634Z,77.90
2022-10-01T01:43:44.020Z,76.69
2022-10-01T01:46:13.253Z,76.67
2022-10-01T01:48:41.826Z,77.91
2022-10-01T01:51:14.609Z,78.27
2022-10-01T01:53:41.553Z,77.93
2022-10-01T01:56:08.677Z,77.76
2022-10-01T01:58:35.971Z,77.48
2022-10-01T02:01:03.244Z,79.00
2022-10-01T02:03:31.260Z,80.21
2022-10-01T02:06:41.046Z,83.15
2022-10-01T02:09:21.910Z,85.12
2022-10-01T02:12:19.182Z,87.23
2022-10-01T02:15:02.267Z,88.24
2022-10-01T02:17:36.576Z,88.31
2022-10-01T02:20:15.501Z,91.12
2022-10-01T02:22:50.814Z,90.36
2022-10-01T02:25:22.247Z,89.98
2022-10-01T02:27:59.027Z,91.80
2022-10-01T02:30:27.689Z,93.80
2022-10-01T02:32:59.248Z,94.83
2022-10-01T02:35:27.906Z,95.18
2022-10-01T02:37:57.348Z,96.64
2022-10-01T02:40:27.024Z,96.83
2022-10-01T02:42:56.750Z,97.53
2022-10-01T02:45:26.037Z,98.02
2022-10-01T02:48:04.645Z,100.00
2022-10-01T02:50:37.097Z,100.00
2022-10-01T02:53:07.315Z,100.00
2022-10-01T02:55:38.285Z,100.00
2022-10-01T02:58:05.959Z,100.00
2022-10-01T03:00:32.500Z,100.00
2022-10-01T03:02:59.594Z,100.00
2022-10-01T03:05:26.721Z,100.00
2022-10-01T03:07:53.457Z,100.00
2022-10-01T03:10:20.246Z,100.00
2022-10-01T03:12:46.929Z,100.00
2022-10-01T03:15:16.226Z,100.00
2022-10-01T03:17:42.951Z,100.00
2022-10-01T03:20:10.678Z,100.00
2022-10-01T03:22:37.275Z,100.00
2022-10-01T03:25:04.981Z,100.00
2022-10-01T03:27:32.868Z,100.00
2022-10-01T03:29:59.515Z,100.00
2022-10-01T03:32:26.217Z,100.00
2022-10-01T03:34:52.781Z,100.00
2022-10-01T03:37:20.405Z,100.00
2022-10-01T03:39:47.093Z,100.00
2022-10-01T03:42:13.585Z,100.00
2022-10-01T03:44:40.136Z,100.00
2022-10-01T03:47:06.686Z,100.00
2022-10-01T03:49:34.589Z,100.00
2022-10-01T03:52:02.366Z,100.00
2022-10-01T03:54:31.315Z,100.00
2022-10-01T03:56:58.517Z,100.00
2022-10-01T03:59:27.097Z,100.00
2022-10-01T04:01:54.356Z,100.00
2022-10-01T04:04:20.997Z,100.00
2022-10-01T04:06:47.571Z,100.00
2022-10-01T04:09:16.724Z,100.00
2022-10-01T04:11:47.299Z,100.00
2022-10-01T04:14:14.153Z,100.00
2022-10-01T04:16:40.993Z,100.00
2022-10-01T04:19:07.568Z,100.00
2022-10-01T04:21:34.271Z,100.00
2022-10-01T04:24:03.100Z,100.00
2022-10-01T04:26:29.630Z,100.00
2022-10-01T04:28:56.269Z,100.00
2022-10-01T04:31:25.985Z,100.00
2022-10-01T04:33:54.874Z,100.00
2022-10-01T04:36:22.576Z,100.00
2022-10-01T04:39:01.812Z,100.00
2022-10-01T04:41:30.779Z,100.00
2022-10-01T04:43:59.907Z,100.00
2022-10-01T04:46:28.062Z,100.00
2022-10-01T04:48:54.707Z,100.00
2022-10-01T04:51:21.374Z,100.00
2022-10-01T04:53:47.902Z,100.00
2022-10-01T04:56:14.507Z,100.00
2022-10-01T04:58:41.327Z,100.00
2022-10-01T05:01:08.017Z,100.00
2022-10-01T05:03:34.677Z,100.00
2022-10-01T05:06:01.408Z,100.00
2022-10-01T05:08:27.971Z,100.00
2022-10-01T05:10:54.515Z,100.00
2022-10-01T05:13:21.151Z,100.00
2022-10-01T05:15:52.180Z,100.00
2022-10-01T05:18:19.112Z,100.00
2022-10-01T05:20:46.090Z,100.00
2022-10-01T05:23:12.661Z,100.00
2022-10-01T05:25:39.544Z,100.00
2022-10-01T05:28:06.252Z,100.00
2022-10-01T05:30:34.298Z,100.00
2022-10-01T05:33:03.730Z,100.00
2022-10-01T05:35:30.698Z,100.00
2022-10-01T05:37:58.937Z,100.00
2022-10-01T05:40:28.442Z,100.00
2022-10-01T05:43:00.099Z,100.00
2022-10-01T05:45:28.096Z,100.00
2022-10-01T05:48:03.266Z,100.00
2022-10-01T05:50:31.770Z,100.00
2022-10-01T05:52:59.329Z,100.00
2022-10-01T05:55:26.735Z,100.00
2022-10-01T05:57:58.538Z,100.00
2022-10-01T06:00:29.134Z,100.00
2022-10-01T06:03:00.539Z,100.00
2022-10-01T06:05:28.939Z,100.00
2022-10-01T06:07:55.663Z,100.00
2022-10-01T06:10:22.904Z,100.00
2022-10-01T06:12:49.679Z,100.00
2022-10-01T06:15:17.591Z,100.00
2022-10-01T06:17:47.533Z,100.00
2022-10-01T06:20:17.189Z,100.00
2022-10-01T06:22:43.845Z,100.00
2022-10-01T06:25:12.642Z,100.00
2022-10-01T06:27:39.325Z,100.00
2022-10-01T06:30:06.849Z,100.00
2022-10-01T06:32:35.045Z,100.00
2022-10-01T06:35:02.899Z,100.00
2022-10-01T06:37:29.767Z,100.00
2022-10-01T06:39:56.454Z,100.00
2022-10-01T06:42:23.230Z,100.00
2022-10-01T06:44:49.773Z,100.00
2022-10-01T06:47:16.285Z,100.00
2022-10-01T06:49:46.775Z,100.00
2022-10-01T06:52:32.835Z,100.00
2022-10-01T06:55:01.247Z,100.00
2022-10-01T06:57:28.863Z,100.00
2022-10-01T06:59:55.760Z,100.00
2022-10-01T07:02:28.846Z,100.00
2022-10-01T07:04:59.380Z,100.00
2022-10-01T07:07:35.249Z,100.00
2022-10-01T07:10:03.361Z,100.00
2022-10-01T07:12:29.917Z,100.00
2022-10-01T07:14:56.550Z,100.00
2022-10-01T07:17:23.161Z,100.00
2022-10-01T07:19:49.811Z,100.00
2022-10-01T07:22:18.040Z,100.00
2022-10-01T07:24:44.769Z,100.00
2022-10-01T07:27:11.367Z,100.00
2022-10-01T07:29:38.248Z,100.00
2022-10-01T07:32:08.751Z,100.00
2022-10-01T07:34:37.348Z,100.00
2022-10-01T07:37:04.559Z,100.00
2022-10-01T07:39:31.141Z,100.00
2022-10-01T07:41:58.909Z,100.00
2022-10-01T07:44:29.325Z,100.00
2022-10-01T07:46:56.874Z,100.00
2022-10-01T07:49:25.202Z,100.00
2022-10-01T07:51:54.386Z,100.00
2022-10-01T07:54:22.025Z,100.00
2022-10-01T07:56:51.914Z,100.00
2022-10-01T07:59:18.919Z,100.00
2022-10-01T08:01:49.767Z,100.00
2022-10-01T08:04:35.024Z,100.00
2022-10-01T08:07:01.677Z,100.00
2022-10-01T08:09:28.411Z,100.00
2022-10-01T08:11:54.951Z,100.00
2022-10-01T08:14:21.685Z,100.00
2022-10-01T08:16:48.557Z,100.00
2022-10-01T08:19:15.807Z,100.00
2022-10-01T08:21:42.957Z,100.00
2022-10-01T08:24:10.008Z,100.00
2022-10-01T08:26:36.785Z,100.00
2022-10-01T08:29:03.451Z,100.00
2022-10-01T08:31:30.169Z,100.00
2022-10-01T08:33:57.454Z,100.00
2022-10-01T08:36:24.377Z,100.00
2022-10-01T08:38:50.962Z,100.00
2022-10-01T08:41:30.681Z,100.00
2022-10-01T08:43:58.911Z,100.00
2022-10-01T08:46:30.501Z,100.00
2022-10-01T08:49:16.007Z,100.00
2022-10-01T08:52:03.635Z,100.00
2022-10-01T08:54:42.928Z,100.00
2022-10-01T08:57:20.843Z,100.00
2022-10-01T09:00:00.917Z,100.00
2022-10-01T09:02:38.266Z,100.00
2022-10-01T09:05:13.529Z,100.00
2022-10-01T09:07:49.181Z,100.00
2022-10-01T09:10:42.119Z,100.00
2022-10-01T09:13:36.057Z,100.00
2022-10-01T09:16:02.573Z,100.00
2022-10-01T09:18:31.966Z,100.00
2022-10-01T09:20:59.519Z,100.00
2022-10-01T09:23:34.190Z,100.00
2022-10-01T09:26:01.632Z,100.00
2022-10-01T09:28:35.058Z,100.00
2022-10-01T09:31:14.481Z,100.00
2022-10-01T09:33:42.325Z,100.00
2022-10-01T09:36:52.834Z,100.00
2022-10-01T09:39:31.709Z,100.00
2022-10-01T09:41:59.693Z,100.00
2022-10-01T09:44:29.240Z,100.00
2022-10-01T09:46:55.941Z,100.00
2022-10-01T09:49:31.605Z,100.00
2022-10-01T09:52:02.753Z,100.00
2022-10-01T09:54:32.343Z,100.00
2022-10-01T09:57:05.202Z,100.00
2022-10-01T09:59:40.340Z,100.00
2022-10-01T10:02:17.710Z,100.00
2022-10-01T10:04:44.386Z,100.00
2022-10-01T10:07:18.808Z,100.00
2022-10-01T10:09:45.493Z,100.00
2022-10-01T10:12:31.926Z,100.00
2022-10-01T10:15:08.335Z,100.00
2022-10-01T10:17:38.050Z,100.00
2022-10-01T10:20:17.537Z,100.00
2022-10-01T10:22:43.969Z,100.00
2022-10-01T10:25:19.622Z,100.00
2022-10-01T10:27:55.786Z,100.00
2022-10-01T10:30:26.386Z,100.00
2022-10-01T10:33:01.894Z,100.00
2022-10-01T10:35:28.909Z,100.00
2022-10-01T10:37:57.320Z,100.00
2022-10-01T10:40:32.869Z,100.00
2022-10-01T10:43:00.229Z,100.00
2022-10-01T10:45:38.650Z,100.00
2022-10-01T10:48:08.034Z,100.00
2022-10-01T10:50:39.329Z,100.00
2022-10-01T10:53:22.290Z,100.00
2022-10-01T10:56:01.112Z,100.00
2022-10-01T10:58:30.723Z,100.00
2022-10-01T11:01:00.204Z,100.00
2022-10-01T11:03:30.233Z,100.00
2022-10-01T11:06:08.786Z,100.00
2022-10-01T11:08:35.900Z,100.00
2022-10-01T11:11:27.695Z,100.00
2022-10-01T11:14:21.456Z,100.00
2022-10-01T11:17:04.019Z,100.00
2022-10-01T11:20:01.726Z,100.00
2022-10-01T11:22:39.376Z,100.00
2022-10-01T11:25:05.901Z,100.00
2022-10-01T11:27:58.726Z,100.00
2022-10-01T11:30:45.831Z,100.00
2022-10-01T11:33:15.390Z,100.00
2022-10-01T11:35:47.113Z,100.00
2022-10-01T11:38:24.727Z,100.00
2022-10-01T11:40:58.168Z,100.00
2022-10-01T11:43:32.630Z,100.00
2022-10-01T11:46:10.480Z,99.17
2022-10-01T11:49:10.146Z,98.48
2022-10-01T11:51:46.471Z,98.79
2022-10-01T11:54:16.658Z,99.95
2022-10-01T11:57:08.029Z,100.00
2022-10-01T11:59:55.326Z,99.55
2022-10-01T12:02:31.719Z,98.60
2022-10-01T12:05:10.243Z,97.91
2022-10-01T12:07:46.482Z,96.33
2022-10-01T12:10:42.130Z,96.18
2022-10-01T12:13:15.886Z,95.48
2022-10-01T12:16:20.951Z,97.23
2022-10-01T12:18:57.227Z,99.36
2022-10-01T12:21:29.112Z,100.00
2022-10-01T12:24:12.987Z,100.00
2022-10-01T12:26:54.895Z,100.00
2022-10-01T12:30:06.352Z,100.00
2022-10-01T12:32:51.871Z,100.00
2022-10-01T12:35:39.611Z,100.00
2022-10-01T12:38:36.833Z,100.00
2022-10-01T12:41:32.180Z,100.00
2022-10-01T12:44:22.191Z,98.00
2022-10-01T12:47:11.374Z,96.01
2022-10-01T12:50:04.725Z,97.84
2022-10-01T12:53:09.579Z,95.64
2022-10-01T12:55:54.960Z,95.17
2022-10-01T12:58:40.432Z,94.23
2022-10-01T13:01:31.897Z,93.22
2022-10-01T13:04:23.386Z,89.17
2022-10-01T13:07:05.149Z,87.34
2022-10-01T13:10:07.244Z,90.27
2022-10-01T13:12:56.503Z,89.92
2022-10-01T13:15:31.873Z,88.64
2022-10-01T13:18:10.442Z,91.08
2022-10-01T13:21:08.329Z,90.67
2022-10-01T13:24:13.696Z,88.50
2022-10-01T13:26:46.431Z,89.04
2022-10-01T13:29:30.272Z,89.62
2022-10-01T13:31:59.550Z,89.48
2022-10-01T13:34:40.394Z,88.76
2022-10-01T13:37:30.327Z,88.32
2022-10-01T13:39:58.404Z,89.82
2022-10-01T13:42:38.546Z,88.63
2022-10-01T13:45:07.452Z,87.61
2022-10-01T13:47:41.133Z,87.14
2022-10-01T13:50:21.006Z,88.91
2022-10-01T13:52:47.646Z,89.86
2022-10-01T13:55:29.574Z,96.72
2022-10-01T13:58:26.923Z,97.99
2022-10-01T14:00:56.233Z,100.00
2022-10-01T14:03:44.357Z,98.22
2022-10-01T14:06:21.615Z,100.00
2022-10-01T14:08:54.289Z,100.00
2022-10-01T14:11:46.191Z,100.00
2022-10-01T14:14:40.229Z,100.00
2022-10-01T14:17:09.870Z,97.34
2022-10-01T14:19:37.049Z,99.73
2022-10-01T14:22:12.782Z,99.87
2022-10-01T14:24:50.542Z,100.00
2022-10-01T14:27:43.517Z,100.00
2022-10-01T14:30:17.514Z,100.00
2022-10-01T14:33:12.161Z,100.00
2022-10-01T14:35:47.728Z,100.00
2022-10-01T14:38:19.418Z,100.00
2022-10-01T14:40:48.083Z,100.00
2022-10-01T14:43:23.405Z,100.00
2022-10-01T14:46:02.148Z,100.00
2022-10-01T14:48:31.406Z,100.00
2022-10-01T14:51:04.169Z,100.00
2022-10-01T14:53:34.997Z,100.00
2022-10-01T14:56:06.723Z,100.00
2022-10-01T14:58:41.567Z,100.00
2022-10-01T15:01:18.244Z,100.00
2022-10-01T15:03:47.303Z,100.00
2022-10-01T15:06:17.097Z,100.00
2022-10-01T15:08:49.034Z,100.00
2022-10-01T15:11:24.217Z,100.00
2022-10-01T15:13:54.602Z,100.00
2022-10-01T15:16:23.974Z,100.00
2022-10-01T15:18:58.071Z,100.00
2022-10-01T15:21:33.748Z,100.00
2022-10-01T15:24:04.174Z,100.00
2022-10-01T15:26:32.771Z,100.00
2022-10-01T15:29:04.926Z,100.00
2022-10-01T15:31:33.073Z,100.00
2022-10-01T15:34:02.544Z,100.00
2022-10-01T15:36:29.397Z,100.00
2022-10-01T15:38:56.802Z,100.00
2022-10-01T15:41:32.750Z,100.00
2022-10-01T15:44:03.210Z,100.00
2022-10-01T15:46:34.091Z,100.00
2022-10-01T15:49:18.731Z,100.00
2022-10-01T15:52:19.816Z,100.00
2022-10-01T15:54:47.392Z,100.00
2022-10-01T15:57:20.767Z,100.00
2022-10-01T15:59:50.093Z,100.00
2022-10-01T16:02:22.691Z,100.00
2022-10-01T16:04:52.764Z,100.00
2022-10-01T16:07:28.721Z,100.00
2022-10-01T16:10:12.278Z,100.00
2022-10-01T16:12:38.982Z,100.00
2022-10-01T16:15:22.926Z,100.00
2022-10-01T16:17:55.925Z,100.00
2022-10-01T16:20:46.606Z,100.00
2022-10-01T16:23:41.926Z,100.00
2022-10-01T16:26:27.130Z,100.00
2022-10-01T16:28:59.583Z,100.00
2022-10-01T16:31:26.341Z,100.00
2022-10-01T16:33:53.129Z,100.00
2022-10-01T16:36:21.688Z,100.00
2022-10-01T16:38:48.260Z,100.00
2022-10-01T16:41:22.169Z,100.00
2022-10-01T16:43:51.741Z,100.00
2022-10-01T16:46:18.373Z,100.00
2022-10-01T16:48:48.761Z,100.00
2022-10-01T16:51:15.379Z,100.00
2022-10-01T16:53:42.965Z,100.00
2022-10-01T16:56:10.796Z,100.00
2022-10-01T16:58:41.689Z,100.00
2022-10-01T17:01:10.171Z,100.00
2022-10-01T17:03:36.935Z,100.00
2022-10-01T17:06:03.805Z,100.00
2022-10-01T17:08:30.377Z,100.00
2022-10-01T17:11:00.196Z,100.00
2022-10-01T17:13:28.593Z,100.00
2022-10-01T17:15:55.335Z,100.00
2022-10-01T17:18:22.088Z,100.00
2022-10-01T17:20:48.786Z,100.00
2022-10-01T17:23:19.061Z,99.88
2022-10-01T17:25:46.668Z,100.00
2022-10-01T17:28:16.773Z,99.41
2022-10-01T17:30:46.442Z,98.15
2022-10-01T17:33:13.764Z,98.02
2022-10-01T17:35:43.144Z,99.45
2022-10-01T17:38:11.060Z,98.22
2022-10-01T17:40:41.792Z,98.49
2022-10-01T17:43:12.586Z,97.83
2022-10-01T17:45:39.209Z,99.57
2022-10-01T17:48:05.977Z,98.63
2022-10-01T17:50:32.965Z,98.68
2022-10-01T17:53:00.732Z,98.18
2022-10-01T17:55:27.912Z,98.07
2022-10-01T17:57:54.566Z,97.93
2022-10-01T18:00:21.263Z,97.66
2022-10-01T18:02:47.970Z,96.82
2022-10-01T18:05:15.098Z,96.96
2022-10-01T18:07:42.584Z,97.65
2022-10-01T18:10:12.196Z,97.45
2022-10-01T18:12:39.056Z,97.65
2022-10-01T18:15:06.136Z,98.31
2022-10-01T18:17:33.227Z,97.96
2022-10-01T18:20:00.133Z,98.15
2022-10-01T18:22:28.181Z,97.67
2022-10-01T18:24:54.919Z,98.22
2022-10-01T18:27:21.558Z,98.70
2022-10-01T18:29:48.164Z,100.00
2022-10-01T18:32:20.556Z,99.81
2022-10-01T18:34:59.131Z,99.84
2022-10-01T18:37:40.178Z,100.00
2022-10-01T18:40:16.313Z,100.00
2022-10-01T18:43:03.132Z,100.00
2022-10-01T18:45:53.294Z,100.00
2022-10-01T18:48:57.865Z,100.00
2022-10-01T18:51:57.636Z,99.59
2022-10-01T18:54:31.898Z,99.77
2022-10-01T18:57:06.081Z,99.89
2022-10-01T18:59:47.722Z,98.76
2022-10-01T19:02:31.951Z,100.00
2022-10-01T19:05:34.041Z,100.00
2022-10-01T19:08:23.632Z,100.00
2022-10-01T19:11:17.077Z,100.00
2022-10-01T19:13:56.718Z,100.00
2022-10-01T19:16:29.494Z,100.00
2022-10-01T19:19:12.166Z,100.00
2022-10-01T19:21:45.654Z,99.71
2022-10-01T19:24:23.233Z,100.00
2022-10-01T19:26:52.853Z,99.35
2022-10-01T19:29:22.279Z,99.90
2022-10-01T19:31:56.244Z,100.00
2022-10-01T19:34:38.083Z,99.38
2022-10-01T19:37:28.032Z,99.53
2022-10-01T19:40:00.849Z,99.07
2022-10-01T19:42:33.211Z,99.92
2022-10-01T19:45:16.363Z,100.00
2022-10-01T19:47:54.183Z,100.00
2022-10-01T19:50:28.969Z,100.00
2022-10-01T19:52:58.184Z,100.00
2022-10-01T19:55:32.154Z,100.00
2022-10-01T19:58:02.889Z,100.00
2022-10-01T20:00:32.305Z,100.00
2022-10-01T20:03:22.892Z,100.00
2022-10-01T20:06:01.789Z,100.00
2022-10-01T20:08:52.904Z,100.00
2022-10-01T20:11:39.579Z,100.00
2022-10-01T20:14:57.350Z,100.00
2022-10-01T20:17:28.824Z,100.00
2022-10-01T20:20:13.167Z,100.00
2022-10-01T20:22:45.496Z,100.00
2022-10-01T20:25:24.028Z,100.00
2022-10-01T20:28:01.189Z,100.00
2022-10-01T20:30:30.503Z,100.00
2022-10-01T20:33:06.337Z,100.00
2022-10-01T20:35:37.995Z,100.00
2022-10-01T20:38:13.285Z,100.00
2022-10-01T20:40:50.866Z,100.00
2022-10-01T20:43:28.227Z,100.00
2022-10-01T20:45:55.915Z,100.00
2022-10-01T20:48:27.206Z,100.00
2022-10-01T20:51:00.704Z,100.00
2022-10-01T20:53:38.617Z,100.00
2022-10-01T20:56:16.479Z,100.00
2022-10-01T20:58:50.153Z,100.00
2022-10-01T21:01:20.710Z,100.00
2022-10-01T21:03:54.248Z,100.00
2022-10-01T21:06:35.397Z,100.00
2022-10-01T21:09:26.087Z,100.00
2022-10-01T21:12:08.650Z,100.00
2022-10-01T21:14:45.604Z,100.00
2022-10-01T21:17:34.281Z,100.00
2022-10-01T21:20:49.364Z,100.00
2022-10-01T21:23:34.230Z,100.00
2022-10-01T21:26:16.161Z,100.00
2022-10-01T21:28:54.981Z,100.00
2022-10-01T21:32:09.554Z,100.00
2022-10-01T21:35:01.107Z,100.00
2022-10-01T21:37:33.961Z,100.00
2022-10-01T21:40:04.007Z,100.00
2022-10-01T21:42:45.029Z,100.00
2022-10-01T21:45:45.871Z,100.00
2022-10-01T21:48:39.949Z,100.00
2022-10-01T21:51:12.550Z,100.00
2022-10-01T21:53:57.297Z,100.00
2022-10-01T21:56:54.895Z,100.00
2022-10-01T21:59:47.503Z,100.00
2022-10-01T22:02:33.644Z,100.00
2022-10-01T22:05:22.773Z,100.00
2022-10-01T22:08:02.216Z,100.00
2022-10-01T22:10:36.491Z,100.00
2022-10-01T22:13:11.286Z,100.00
2022-10-01T22:15:43.841Z,100.00
2022-10-01T22:18:49.065Z,100.00
2022-10-01T22:21:41.253Z,100.00
2022-10-01T22:24:12.322Z,100.00
2022-10-01T22:27:13.609Z,100.00
2022-10-01T22:29:48.762Z,100.00
2022-10-01T22:32:19.388Z,100.00
2022-10-01T22:34:54.998Z,100.00
2022-10-01T22:37:37.543Z,100.00
2022-10-01T22:40:26.266Z,100.00
2022-10-01T22:43:03.640Z,100.00
2022-10-01T22:45:47.499Z,100.00
2022-10-01T22:48:37.641Z,100.00
2022-10-01T22:51:30.423Z,100.00
2022-10-01T22:54:09.129Z,100.00
2022-10-01T22:57:03.176Z,100.00
2022-10-01T22:59:51.006Z,100.00
2022-10-01T23:02:31.884Z,100.00
2022-10-01T23:05:32.361Z,100.00
2022-10-01T23:08:31.959Z,100.00
2022-10-01T23:11:04.573Z,100.00
2022-10-01T23:13:46.401Z,100.00
2022-10-01T23:16:17.360Z,100.00
2022-10-01T23:18:52.464Z,100.00
2022-10-01T23:21:37.263Z,100.00
2022-10-01T23:24:19.135Z,100.00
2022-10-01T23:27:07.065Z,100.00
2022-10-01T23:30:04.590Z,100.00
2022-10-01T23:32:31.054Z,100.00
2022-10-01T23:35:00.697Z,100.00
2022-10-01T23:37:27.200Z,100.00
2022-10-01T23:40:09.408Z,100.00
2022-10-01T23:42:35.955Z,100.00
2022-10-01T23:45:15.227Z,100.00
2022-10-01T23:48:13.771Z,100.00
2022-10-01T23:50:49.243Z,100.00
2022-10-01T23:53:23.903Z,100.00
2022-10-01T23:56:23.473Z,100.00
2022-10-01T23:59:00.902Z,100.00
